createdAt,value
2023-01-17T00:00:40.939Z,95556.50
2023-01-17T00:03:07.495Z,95563.06
2023-01-17T00:05:52.623Z,95568.06
2023-01-17T00:08:37.831Z,95572.31
2023-01-17T00:11:04.389Z,95574.28
2023-01-17T00:13:30.968Z,95582.00
2023-01-17T00:15:57.640Z,95590.06
2023-01-17T00:18:24.623Z,95582.00
2023-01-17T00:21:09.656Z,95585.84
2023-01-17T00:24:01.799Z,95587.00
2023-01-17T00:26:31.121Z,95590.09
2023-01-17T00:28:57.651Z,95584.25
2023-01-17T00:33:55.420Z,95593.13
2023-01-17T00:36:22.004Z,95582.31
2023-01-17T00:38:48.523Z,95591.22
2023-01-17T00:41:15.368Z,95595.84
2023-01-17T00:44:00.618Z,95603.91
2023-01-17T00:46:46.225Z,95600.47
2023-01-17T00:49:31.746Z,95599.31
2023-01-17T00:55:06.531Z,95604.31
2023-01-17T00:57:51.559Z,95613.19
2023-01-17T01:00:39.950Z,95607.78
2023-01-17T01:03:29.058Z,95622.03
2023-01-17T01:06:14.094Z,95629.75
2023-01-17T01:08:59.283Z,95625.88
2023-01-17T01:11:44.261Z,95637.47
2023-01-17T01:14:29.654Z,95644.41
2023-01-17T01:17:14.698Z,95653.63
2023-01-17T01:20:00.247Z,95656.75
2023-01-17T01:22:45.311Z,95658.66
2023-01-17T01:25:30.658Z,95659.09
2023-01-17T01:28:24.125Z,95663.31
2023-01-17T01:31:09.632Z,95668.69
2023-01-17T01:33:36.258Z,95672.16
2023-01-17T01:36:02.896Z,95666.38
2023-01-17T01:38:29.509Z,95672.16
2023-01-17T01:40:57.009Z,95673.72
2023-01-17T01:43:47.290Z,95669.06
2023-01-17T01:46:22.438Z,95663.69
2023-01-17T01:48:51.368Z,95673.31
2023-01-17T01:51:24.004Z,95664.47
2023-01-17T01:53:54.528Z,95672.91
2023-01-17T01:56:23.709Z,95672.16
2023-01-17T01:58:53.044Z,95675.25
2023-01-17T02:01:20.222Z,95681.44
2023-01-17T02:03:48.036Z,95675.28
2023-01-17T02:06:19.380Z,95669.47
2023-01-17T02:08:46.309Z,95674.47
2023-01-17T02:11:13.052Z,95677.16
2023-01-17T02:13:40.934Z,95669.81
2023-01-17T02:16:13.513Z,95665.19
2023-01-17T02:19:01.218Z,95662.13
2023-01-17T02:21:40.886Z,95656.34
2023-01-17T02:27:04.667Z,95661.31
2023-01-17T02:32:11.599Z,95650.94
2023-01-17T02:34:56.078Z,95655.19
2023-01-17T02:37:35.015Z,95652.06
2023-01-17T02:40:14.482Z,95647.44
2023-01-17T02:42:49.002Z,95645.47
2023-01-17T02:45:18.390Z,95640.53
2023-01-17T02:47:45.061Z,95655.16
2023-01-17T02:50:23.941Z,95656.72
2023-01-17T02:52:56.581Z,95653.66
2023-01-17T02:56:06.172Z,95654.75
2023-01-17T02:58:49.532Z,95648.97
2023-01-17T03:01:34.039Z,95654.31
2023-01-17T03:04:20.721Z,95648.97
2023-01-17T03:06:54.017Z,95646.63
2023-01-17T03:09:22.719Z,95647.78
2023-01-17T03:11:49.283Z,95637.38
2023-01-17T03:14:15.839Z,95645.84
2023-01-17T03:16:42.797Z,95647.78
2023-01-17T03:19:10.031Z,95643.13
2023-01-17T03:21:36.753Z,95649.28
2023-01-17T03:24:03.523Z,95661.22
2023-01-17T03:26:30.360Z,95657.00
2023-01-17T03:28:56.951Z,95659.34
2023-01-17T03:31:24.057Z,95662.81
2023-01-17T03:33:50.621Z,95660.47
2023-01-17T03:36:17.175Z,95667.06
2023-01-17T03:38:43.749Z,95665.88
2023-01-17T03:41:10.304Z,95663.56
2023-01-17T03:43:37.008Z,95664.72
2023-01-17T03:46:05.866Z,95665.50
2023-01-17T03:48:33.214Z,95671.72
2023-01-17T03:50:59.995Z,95667.13
2023-01-17T03:53:26.720Z,95669.81
2023-01-17T03:55:53.298Z,95675.22
2023-01-17T04:00:51.544Z,95682.97
2023-01-17T04:03:18.073Z,95691.47
2023-01-17T04:05:44.852Z,95689.13
2023-01-17T04:08:11.592Z,95689.84
2023-01-17T04:10:38.216Z,95693.72
2023-01-17T04:13:04.953Z,95695.22
2023-01-17T04:15:31.616Z,95702.16
2023-01-17T04:17:58.407Z,95707.09
2023-01-17T04:20:37.938Z,95665.94
2023-01-17T04:23:05.186Z,95671.31
2023-01-17T04:25:32.087Z,95672.88
2023-01-17T04:28:00.321Z,95671.38
2023-01-17T04:30:28.664Z,95672.91
2023-01-17T04:32:55.382Z,95672.16
2023-01-17T04:35:21.965Z,95673.28
2023-01-17T04:37:49.015Z,95677.56
2023-01-17T04:40:15.705Z,95678.31
2023-01-17T04:42:45.136Z,95676.03
2023-01-17T04:45:12.951Z,95674.09
2023-01-17T04:47:39.595Z,95683.34
2023-01-17T04:50:06.646Z,95682.56
2023-01-17T04:52:33.350Z,95683.72
2023-01-17T04:54:59.923Z,95689.47
2023-01-17T04:57:26.457Z,95695.25
2023-01-17T04:59:56.043Z,95690.63
2023-01-17T05:02:22.749Z,95689.09
2023-01-17T05:04:49.450Z,95685.25
2023-01-17T05:07:16.105Z,95685.25
2023-01-17T05:09:43.940Z,95677.94
2023-01-17T05:12:10.918Z,95683.34
2023-01-17T05:14:37.569Z,95679.50
2023-01-17T05:17:04.139Z,95682.56
2023-01-17T05:19:30.744Z,95684.50
2023-01-17T05:22:04.153Z,95676.03
2023-01-17T05:24:32.341Z,95678.34
2023-01-17T05:27:03.226Z,95676.03
2023-01-17T05:32:09.132Z,95679.88
2023-01-17T05:34:35.714Z,95672.16
2023-01-17T05:37:02.409Z,95665.59
2023-01-17T05:39:31.075Z,95675.56
2023-01-17T05:41:58.105Z,95675.22
2023-01-17T05:44:24.685Z,95671.75
2023-01-17T05:46:51.272Z,95672.53
2023-01-17T05:49:17.857Z,95670.63
2023-01-17T05:51:44.395Z,95664.47
2023-01-17T05:56:42.323Z,95667.88
2023-01-17T05:59:09.033Z,95670.94
2023-01-17T06:01:35.613Z,95660.50
2023-01-17T06:04:02.190Z,95660.53
2023-01-17T06:06:28.723Z,95651.22
2023-01-17T06:11:33.371Z,95652.41
2023-01-17T06:13:59.945Z,95658.09
2023-01-17T06:16:26.565Z,95648.88
2023-01-17T06:18:53.283Z,95648.44
2023-01-17T06:21:19.915Z,95647.97
2023-01-17T06:23:46.503Z,95638.44
2023-01-17T06:26:13.182Z,95626.91
2023-01-17T06:28:39.706Z,95618.84
2023-01-17T06:31:09.574Z,95623.03
2023-01-17T06:33:36.231Z,95616.53
2023-01-17T06:36:02.905Z,95601.97
2023-01-17T06:38:30.050Z,95613.47
2023-01-17T06:41:00.392Z,95616.84
2023-01-17T06:43:28.931Z,95612.88
2023-01-17T06:45:55.501Z,95612.16
2023-01-17T06:48:22.060Z,95623.28
2023-01-17T06:50:49.905Z,95614.13
2023-01-17T06:53:16.755Z,95618.06
2023-01-17T06:58:16.333Z,95621.09
2023-01-17T07:00:42.958Z,95625.38
2023-01-17T07:03:20.205Z,95622.38
2023-01-17T07:05:46.985Z,95624.69
2023-01-17T07:08:13.683Z,95624.31
2023-01-17T07:10:40.324Z,95615.88
2023-01-17T07:13:06.952Z,95620.50
2023-01-17T07:15:34.050Z,95610.06
2023-01-17T07:18:02.100Z,95609.66
2023-01-17T07:20:28.711Z,95612.34
2023-01-17T07:22:55.303Z,95608.13
2023-01-17T07:25:21.992Z,95614.28
2023-01-17T07:27:48.723Z,95605.81
2023-01-17T07:30:15.510Z,95599.63
2023-01-17T07:32:42.137Z,95598.84
2023-01-17T07:35:09.049Z,95598.03
2023-01-17T07:37:35.673Z,95608.03
2023-01-17T07:40:03.172Z,95591.13
2023-01-17T07:42:29.779Z,95591.13
2023-01-17T07:44:56.345Z,95595.44
2023-01-17T07:47:24.884Z,95596.53
2023-01-17T07:49:51.490Z,95588.41
2023-01-17T07:54:49.315Z,95583.84
2023-01-17T07:57:15.905Z,95575.00
2023-01-17T07:59:42.484Z,95571.94
2023-01-17T08:02:20.700Z,95568.09
2023-01-17T08:04:48.015Z,95568.47
2023-01-17T08:07:15.127Z,95569.28
2023-01-17T08:09:43.122Z,95564.63
2023-01-17T08:12:10.704Z,95572.66
2023-01-17T08:14:37.285Z,95566.94
2023-01-17T08:17:15.100Z,95575.81
2023-01-17T08:19:41.762Z,95576.13
2023-01-17T08:22:08.383Z,95575.81
2023-01-17T08:24:35.504Z,95583.13
2023-01-17T08:27:02.172Z,95568.91
2023-01-17T08:29:29.475Z,95579.25
2023-01-17T08:31:56.085Z,95581.19
2023-01-17T08:34:22.748Z,95587.28
2023-01-17T08:36:49.317Z,95581.09
2023-01-17T08:39:15.884Z,95584.94
2023-01-17T08:41:42.393Z,95586.47
2023-01-17T08:44:09.035Z,95587.31
2023-01-17T08:46:38.420Z,95584.63
2023-01-17T08:49:05.527Z,95580.06
2023-01-17T08:51:32.968Z,95574.69
2023-01-17T08:53:59.588Z,95571.63
2023-01-17T08:56:27.523Z,95582.41
2023-01-17T08:58:54.139Z,95580.09
2023-01-17T09:01:20.866Z,95571.22
2023-01-17T09:03:51.520Z,95566.19
2023-01-17T09:06:18.162Z,95571.94
2023-01-17T09:08:47.172Z,95569.22
2023-01-17T09:11:17.575Z,95566.50
2023-01-17T09:13:44.773Z,95572.63
2023-01-17T09:16:11.381Z,95572.69
2023-01-17T09:18:38.130Z,95562.66
2023-01-17T09:21:30.831Z,95576.53
2023-01-17T09:23:57.487Z,95572.66
2023-01-17T09:26:27.131Z,95566.47
2023-01-17T09:28:54.312Z,95560.19
2023-01-17T09:31:22.989Z,95565.47
2023-01-17T09:36:24.117Z,95562.25
2023-01-17T09:38:56.732Z,95547.00
2023-01-17T09:41:30.498Z,95548.13
2023-01-17T09:44:03.229Z,95542.97
2023-01-17T09:46:33.895Z,95537.72
2023-01-17T09:49:08.695Z,95532.84
2023-01-17T09:51:36.885Z,95527.19
2023-01-17T09:54:03.747Z,95527.19
2023-01-17T09:56:42.805Z,95530.06
2023-01-17T09:59:33.206Z,95522.22
2023-01-17T10:02:31.157Z,95527.94
2023-01-17T10:07:50.019Z,95532.22
2023-01-17T10:13:45.358Z,95517.72
2023-01-17T10:16:45.973Z,95526.00
2023-01-17T10:19:35.685Z,95520.56
2023-01-17T10:22:24.212Z,95517.50
2023-01-17T10:25:27.310Z,95512.78
2023-01-17T10:30:51.295Z,95499.69
2023-01-17T10:33:37.673Z,95497.28
2023-01-17T10:39:01.357Z,95500.34
2023-01-17T10:41:39.917Z,95496.06
2023-01-17T10:44:19.999Z,95494.88
2023-01-17T10:47:12.837Z,95499.19
2023-01-17T10:49:44.978Z,95488.72
2023-01-17T10:52:36.573Z,95486.78
2023-01-17T10:55:24.468Z,95483.28
2023-01-17T10:57:51.382Z,95480.28
2023-01-17T11:00:28.633Z,95481.34
2023-01-17T11:02:55.647Z,95472.50
2023-01-17T11:05:29.108Z,95474.00
2023-01-17T11:08:03.959Z,95472.00
2023-01-17T11:10:40.300Z,95470.47
2023-01-17T11:13:32.134Z,95477.47
2023-01-17T11:16:02.303Z,95475.16
2023-01-17T11:18:35.247Z,95479.47
2023-01-17T11:21:23.412Z,95471.72
2023-01-17T11:23:58.334Z,95473.97
2023-01-17T11:26:28.876Z,95466.59
2023-01-17T11:29:30.805Z,95458.78
2023-01-17T11:31:57.471Z,95440.28
2023-01-17T11:34:26.370Z,95439.09
2023-01-17T11:37:09.807Z,95432.97
2023-01-17T11:39:36.355Z,95421.28
2023-01-17T11:42:06.419Z,95417.41
2023-01-17T11:44:35.135Z,95428.59
2023-01-17T11:47:08.982Z,95433.56
2023-01-17T11:49:35.741Z,95437.03
2023-01-17T11:52:09.126Z,95435.19
2023-01-17T11:54:42.640Z,95428.91
2023-01-17T11:57:30.936Z,95418.47
2023-01-17T12:00:08.760Z,95408.03
2023-01-17T12:02:35.786Z,95405.63
2023-01-17T12:05:17.046Z,95389.47
2023-01-17T12:08:01.888Z,95381.00
2023-01-17T12:10:52.970Z,95375.47
2023-01-17T12:13:47.117Z,95376.56
2023-01-17T12:16:35.175Z,95372.59
2023-01-17T12:19:21.193Z,95372.97
2023-01-17T12:22:08.652Z,95372.84
2023-01-17T12:24:41.374Z,95361.50
2023-01-17T12:27:12.864Z,95361.38
2023-01-17T12:29:48.394Z,95356.13
2023-01-17T12:32:31.606Z,95350.84
2023-01-17T12:35:21.004Z,95351.88
2023-01-17T12:38:05.561Z,95338.28
2023-01-17T12:40:44.451Z,95329.88
2023-01-17T12:43:33.033Z,95333.75
2023-01-17T12:46:06.970Z,95333.28
2023-01-17T12:48:37.951Z,95328.28
2023-01-17T12:51:19.409Z,95324.31
2023-01-17T12:54:20.037Z,95318.03
2023-01-17T12:56:54.663Z,95307.16
2023-01-17T12:59:42.598Z,95301.13
2023-01-17T13:02:21.550Z,95301.97
2023-01-17T13:05:08.894Z,95305.06
2023-01-17T13:07:53.624Z,95297.81
2023-01-17T13:10:41.364Z,95287.72
2023-01-17T13:13:22.745Z,95281.34
2023-01-17T13:15:54.308Z,95276.69
2023-01-17T13:18:25.974Z,95280.59
2023-01-17T13:21:12.180Z,95280.22
2023-01-17T13:23:55.977Z,95283.84
2023-01-17T13:27:01.442Z,95283.00
2023-01-17T13:30:05.847Z,95274.56
2023-01-17T13:33:03.570Z,95285.44
2023-01-17T13:35:42.976Z,95273.47
2023-01-17T13:38:28.473Z,95275.41
2023-01-17T13:41:05.084Z,95271.19
2023-01-17T13:43:40.630Z,95271.59
2023-01-17T13:46:07.625Z,95262.25
2023-01-17T13:48:38.640Z,95265.16
2023-01-17T13:51:07.547Z,95260.41
2023-01-17T13:53:34.140Z,95259.28
2023-01-17T13:56:18.928Z,95251.81
2023-01-17T13:58:47.274Z,95251.06
2023-01-17T14:03:51.352Z,95262.25
2023-01-17T14:06:36.166Z,95262.72
2023-01-17T14:09:08.724Z,95269.31
2023-01-17T14:12:02.602Z,95271.19
2023-01-17T14:14:44.081Z,95274.78
2023-01-17T14:17:16.765Z,95273.53
2023-01-17T14:19:48.417Z,95278.84
2023-01-17T14:22:20.960Z,95279.56
2023-01-17T14:24:58.513Z,95283.44
2023-01-17T14:27:27.506Z,95281.25
2023-01-17T14:29:59.120Z,95276.59
2023-01-17T14:32:35.454Z,95272.09
2023-01-17T14:35:02.625Z,95274.44
2023-01-17T14:40:26.581Z,95275.09
2023-01-17T14:43:13.963Z,95272.50
2023-01-17T14:45:42.426Z,95266.63
2023-01-17T14:48:18.984Z,95270.22
2023-01-17T14:50:50.346Z,95271.34
2023-01-17T14:53:20.197Z,95260.66
2023-01-17T14:55:55.283Z,95262.91
2023-01-17T14:58:24.924Z,95257.72
2023-01-17T15:01:03.092Z,95260.19
2023-01-17T15:03:33.807Z,95261.66
2023-01-17T15:06:10.887Z,95274.00
2023-01-17T15:08:37.709Z,95271.97
2023-01-17T15:11:16.138Z,95267.59
2023-01-17T15:13:49.940Z,95261.47
2023-01-17T15:16:28.274Z,95263.16
2023-01-17T15:18:56.347Z,95265.88
2023-01-17T15:21:26.528Z,95263.50
2023-01-17T15:23:58.212Z,95252.44
2023-01-17T15:26:28.355Z,95253.88
2023-01-17T15:29:03.126Z,95254.78
2023-01-17T15:31:41.832Z,95247.09
2023-01-17T15:34:16.647Z,95255.75
2023-01-17T15:36:43.370Z,95258.81
2023-01-17T15:42:26.471Z,95265.00
2023-01-17T15:44:59.613Z,95264.44
2023-01-17T15:47:30.916Z,95257.97
2023-01-17T15:49:58.401Z,95260.34
2023-01-17T15:52:25.018Z,95251.44
2023-01-17T15:54:54.703Z,95254.94
2023-01-17T15:57:28.338Z,95251.16
2023-01-17T15:59:54.971Z,95252.78
2023-01-17T16:02:45.541Z,95255.56
2023-01-17T16:05:34.050Z,95259.41
2023-01-17T16:08:03.415Z,95263.97
2023-01-17T16:10:32.139Z,95255.88
2023-01-17T16:18:23.091Z,95265.22
2023-01-17T16:21:00.062Z,95273.13
2023-01-17T16:23:28.216Z,95279.75
2023-01-17T16:25:54.815Z,95271.00
2023-01-17T16:28:21.402Z,95275.28
2023-01-17T16:30:49.022Z,95287.66
2023-01-17T16:33:16.249Z,95281.44
2023-01-17T16:35:43.244Z,95288.34
2023-01-17T16:38:14.147Z,95283.72
2023-01-17T16:40:44.556Z,95283.28
2023-01-17T16:43:12.934Z,95293.38
2023-01-17T16:48:32.972Z,95291.13
2023-01-17T16:56:18.452Z,95292.19
2023-01-17T16:58:45.250Z,95283.28
2023-01-17T17:01:17.643Z,95292.25
2023-01-17T17:03:45.096Z,95278.41
2023-01-17T17:08:43.795Z,95287.16
2023-01-17T17:11:24.629Z,95291.47
2023-01-17T17:19:06.504Z,95301.91
2023-01-17T17:21:34.691Z,95299.22
2023-01-17T17:24:02.187Z,95304.59
2023-01-17T17:26:32.530Z,95306.94
2023-01-17T17:28:59.260Z,95307.78
2023-01-17T17:31:26.141Z,95318.69
2023-01-17T17:33:53.549Z,95313.38
2023-01-17T17:36:22.482Z,95316.88
2023-01-17T17:38:52.112Z,95321.97
2023-01-17T17:41:21.975Z,95325.88
2023-01-17T17:46:23.615Z,95326.69
2023-01-17T17:48:50.249Z,95335.53
2023-01-17T17:51:23.137Z,95342.84
2023-01-17T17:53:50.270Z,95337.41
2023-01-17T17:56:16.826Z,95343.25
2023-01-17T17:58:46.078Z,95346.81
2023-01-17T18:01:12.920Z,95345.31
2023-01-17T18:03:39.783Z,95341.16
2023-01-17T18:06:09.325Z,95351.63
2023-01-17T18:08:37.707Z,95343.44
2023-01-17T18:11:09.206Z,95343.09
2023-01-17T18:13:35.703Z,95340.38
2023-01-17T18:16:08.823Z,95347.66
2023-01-17T18:18:37.206Z,95348.47
2023-01-17T18:21:17.771Z,95348.09
2023-01-17T18:23:45.179Z,95346.13
2023-01-17T18:26:23.157Z,95361.50
2023-01-17T18:28:50.057Z,95360.38
2023-01-17T18:33:55.569Z,95358.84
2023-01-17T18:36:23.659Z,95360.03
2023-01-17T18:41:29.924Z,95355.34
2023-01-17T18:43:57.367Z,95366.63
2023-01-17T18:46:28.436Z,95360.91
2023-01-17T18:48:58.346Z,95365.63
2023-01-17T18:51:25.915Z,95361.78
2023-01-17T18:53:55.473Z,95357.97
2023-01-17T18:56:23.274Z,95362.56
2023-01-17T18:58:51.039Z,95367.53
2023-01-17T19:01:23.705Z,95363.25
2023-01-17T19:03:53.020Z,95360.91
2023-01-17T19:06:23.532Z,95357.91
2023-01-17T19:08:51.928Z,95362.13
2023-01-17T19:11:19.790Z,95371.78
2023-01-17T19:13:46.343Z,95368.69
2023-01-17T19:16:20.066Z,95366.44
2023-01-17T19:18:47.378Z,95373.78
2023-01-17T19:21:17.215Z,95374.94
2023-01-17T19:23:43.849Z,95380.31
2023-01-17T19:26:12.553Z,95383.38
2023-01-17T19:28:41.016Z,95384.13
2023-01-17T19:31:10.358Z,95387.22
2023-01-17T19:33:39.138Z,95388.75
2023-01-17T19:36:09.062Z,95394.13
2023-01-17T19:38:37.357Z,95391.06
2023-01-17T19:41:15.429Z,95389.91
2023-01-17T19:43:42.555Z,95400.28
2023-01-17T19:46:10.473Z,95393.72
2023-01-17T19:48:38.377Z,95395.28
2023-01-17T19:51:06.323Z,95395.31
2023-01-17T19:56:16.692Z,95393.38
2023-01-17T19:58:44.666Z,95391.84
2023-01-17T20:01:16.811Z,95386.09
2023-01-17T20:03:44.999Z,95385.72
2023-01-17T20:06:17.221Z,95383.38
2023-01-17T20:08:44.992Z,95381.78
2023-01-17T20:11:14.947Z,95388.69
2023-01-17T20:13:42.335Z,95381.06
2023-01-17T20:16:11.538Z,95381.78
2023-01-17T20:18:38.281Z,95375.22
2023-01-17T20:21:10.370Z,95373.75
2023-01-17T20:23:39.323Z,95373.00
2023-01-17T20:28:39.669Z,95364.56
2023-01-17T20:31:14.623Z,95374.53
2023-01-17T20:33:43.360Z,95376.84
2023-01-17T20:36:14.980Z,95379.19
2023-01-17T20:38:45.820Z,95387.97
2023-01-17T20:41:24.417Z,95374.94
2023-01-17T20:43:53.417Z,95378.00
2023-01-17T20:51:30.381Z,95378.38
2023-01-17T20:53:59.857Z,95369.91
2023-01-17T20:56:27.617Z,95373.38
2023-01-17T20:58:56.208Z,95374.09
2023-01-17T21:01:23.203Z,95373.34
2023-01-17T21:03:53.229Z,95373.34
2023-01-17T21:06:21.722Z,95371.06
2023-01-17T21:08:49.089Z,95368.75
2023-01-17T21:11:21.179Z,95374.16
2023-01-17T21:13:48.911Z,95379.91
2023-01-17T21:16:17.909Z,95379.50
2023-01-17T21:18:48.603Z,95376.81
2023-01-17T21:21:18.402Z,95376.44
2023-01-17T21:23:45.628Z,95378.81
2023-01-17T21:26:14.711Z,95379.56
2023-01-17T21:28:43.337Z,95380.34
2023-01-17T21:31:23.293Z,95381.84
2023-01-17T21:34:10.013Z,95385.31
2023-01-17T21:36:39.183Z,95378.03
2023-01-17T21:39:10.786Z,95375.72
2023-01-17T21:41:39.598Z,95371.13
2023-01-17T21:44:11.569Z,95377.63
2023-01-17T21:46:39.867Z,95374.53
2023-01-17T21:49:10.725Z,95377.22
2023-01-17T21:54:47.870Z,95382.59
2023-01-17T21:57:35.920Z,95385.69
2023-01-17T22:00:04.368Z,95384.53
2023-01-17T22:02:30.908Z,95381.06
2023-01-17T22:04:57.522Z,95381.84
2023-01-17T22:07:27.191Z,95386.88
2023-01-17T22:09:54.663Z,95379.56
2023-01-17T22:12:21.200Z,95391.50
2023-01-17T22:14:47.791Z,95390.34
2023-01-17T22:17:14.325Z,95379.56
2023-01-17T22:19:40.832Z,95376.91
2023-01-17T22:22:07.472Z,95381.09
2023-01-17T22:24:34.195Z,95373.81
2023-01-17T22:29:34.658Z,95374.97
2023-01-17T22:32:01.235Z,95375.34
2023-01-17T22:34:27.859Z,95368.78
2023-01-17T22:36:54.535Z,95376.50
2023-01-17T22:39:21.428Z,95368.03
2023-01-17T22:41:47.973Z,95367.63
2023-01-17T22:44:14.792Z,95363.44
2023-01-17T22:46:42.281Z,95361.09
2023-01-17T22:49:13.455Z,95367.25
2023-01-17T22:51:40.104Z,95364.97
2023-01-17T22:54:06.741Z,95365.72
2023-01-17T22:56:34.028Z,95362.66
2023-01-17T22:59:01.270Z,95370.72
2023-01-17T23:01:30.830Z,95373.41
2023-01-17T23:03:59.415Z,95374.19
2023-01-17T23:06:31.149Z,95371.09
2023-01-17T23:09:00.985Z,95378.41
2023-01-17T23:11:46.301Z,95370.72
2023-01-17T23:14:20.259Z,95375.34
2023-01-17T23:17:08.613Z,95376.50
2023-01-17T23:19:49.455Z,95358.03
2023-01-17T23:22:24.333Z,95367.28
2023-01-17T23:25:02.250Z,95370.34
2023-01-17T23:27:53.079Z,95370.34
2023-01-17T23:30:29.202Z,95358.41
2023-01-17T23:32:58.463Z,95360.34
2023-01-17T23:35:28.087Z,95361.88
2023-01-17T23:38:13.257Z,95361.84
2023-01-17T23:40:40.502Z,95358.41
2023-01-17T23:43:25.598Z,95362.25
2023-01-17T23:45:54.062Z,95364.19
2023-01-17T23:48:23.694Z,95366.09
2023-01-17T23:50:50.612Z,95360.38
2023-01-17T23:53:23.107Z,95379.56
2023-01-17T23:55:52.390Z,95368.81
2023-01-17T23:58:20.896Z,95364.59
